Aviation Digital Data Service (ADDS)

Output produced by METARs form (1844 UTC 19 February 2017)
found at http://aviationweather.gov/adds/metars/
 
KLGA 191720Z 1918/2018 30011KT P6SM BKN100 
     FM192200 32010KT P6SM SCT100 SCT250 
     FM201400 35013G21KT P6SM SKC